createdAt,value
2022-08-09T00:00:16.793Z,86.8
2022-08-09T00:06:19.002Z,86.7
2022-08-09T00:06:25.170Z,86.7
2022-08-09T00:10:24.525Z,86.5
2022-08-09T00:15:19.732Z,86.4
2022-08-09T00:20:16.828Z,86.3
2022-08-09T00:25:23.121Z,86.1
2022-08-09T00:30:26.130Z,86.0
2022-08-09T00:35:16.839Z,85.9
2022-08-09T00:40:19.958Z,85.8
2022-08-09T00:45:21.288Z,85.7
2022-08-09T00:50:19.776Z,85.6
2022-08-09T00:56:03.069Z,85.5
2022-08-09T01:00:21.377Z,85.4
2022-08-09T01:05:21.899Z,85.3
2022-08-09T01:10:19.799Z,85.1
2022-08-09T01:15:17.632Z,85.0
2022-08-09T01:20:18.246Z,84.9
2022-08-09T01:25:19.822Z,84.8
2022-08-09T01:30:28.650Z,84.7
2022-08-09T01:35:37.505Z,84.5
2022-08-09T01:40:23.289Z,84.5
2022-08-09T01:45:16.806Z,84.4
2022-08-09T01:50:21.371Z,84.3
2022-08-09T01:55:19.780Z,84.1
2022-08-09T02:00:35.424Z,84.0
2022-08-09T02:05:19.804Z,83.9
2022-08-09T02:10:19.818Z,83.8
2022-08-09T02:15:19.801Z,83.7
2022-08-09T02:20:25.299Z,83.6
2022-08-09T02:25:21.265Z,83.5
2022-08-09T02:30:19.823Z,83.4
2022-08-09T02:35:26.142Z,83.4
2022-08-09T02:40:27.155Z,83.3
2022-08-09T02:45:19.778Z,83.2
2022-08-09T02:50:19.810Z,83.1
2022-08-09T02:55:20.979Z,83.0
2022-08-09T03:00:26.221Z,82.9
2022-08-09T03:05:19.838Z,82.8
2022-08-09T03:10:16.879Z,82.7
2022-08-09T03:15:19.854Z,82.7
2022-08-09T03:20:19.903Z,82.6
2022-08-09T03:25:26.932Z,82.5
2022-08-09T03:30:29.158Z,82.4
2022-08-09T03:35:24.954Z,82.4
2022-08-09T03:40:19.922Z,82.3
2022-08-09T03:46:04.064Z,82.2
2022-08-09T03:50:27.875Z,82.2
2022-08-09T03:55:19.851Z,82.1
2022-08-09T04:00:19.089Z,82.0
2022-08-09T04:05:27.609Z,82.0
2022-08-09T04:10:20.342Z,82.0
2022-08-09T04:15:40.454Z,81.9
2022-08-09T04:16:24.516Z,81.9
2022-08-09T04:20:16.167Z,81.8
2022-08-09T04:25:16.184Z,81.7
2022-08-09T04:30:20.679Z,81.6
2022-08-09T04:35:21.709Z,81.4
2022-08-09T04:40:29.044Z,81.2
2022-08-09T04:45:16.151Z,81.1
2022-08-09T04:50:16.159Z,80.9
2022-08-09T04:55:16.181Z,80.8
2022-08-09T05:00:19.196Z,80.7
2022-08-09T05:05:32.151Z,80.6
2022-08-09T05:10:16.210Z,80.5
2022-08-09T05:15:38.631Z,80.4
2022-08-09T05:20:19.145Z,80.4
2022-08-09T05:25:19.125Z,80.3
2022-08-09T05:30:19.555Z,80.3
2022-08-09T05:35:16.184Z,80.3
2022-08-09T05:40:19.743Z,80.4
2022-08-09T05:45:19.110Z,80.4
2022-08-09T05:50:30.293Z,80.4
2022-08-09T05:55:21.152Z,80.4
2022-08-09T06:00:19.164Z,80.4
2022-08-09T06:05:19.152Z,80.4
2022-08-09T06:10:19.384Z,80.5
2022-08-09T06:15:19.132Z,80.4
2022-08-09T06:20:19.179Z,80.4
2022-08-09T06:25:21.176Z,80.5
2022-08-09T06:30:19.177Z,80.5
2022-08-09T06:35:19.127Z,80.5
2022-08-09T06:40:21.738Z,80.5
2022-08-09T06:46:05.537Z,80.5
2022-08-09T06:50:22.374Z,80.5
2022-08-09T06:55:23.071Z,80.5
2022-08-09T07:00:50.661Z,80.5
2022-08-09T07:05:19.196Z,80.6
2022-08-09T07:10:24.611Z,80.6
2022-08-09T07:16:36.331Z,80.6
2022-08-09T07:16:42.609Z,80.6
2022-08-09T07:20:16.192Z,80.7
2022-08-09T07:25:16.216Z,80.7
2022-08-09T07:30:16.196Z,80.7
2022-08-09T07:35:17.745Z,80.7
2022-08-09T07:40:16.699Z,80.7
2022-08-09T07:45:23.604Z,80.7
2022-08-09T07:50:16.217Z,80.8
2022-08-09T07:55:16.335Z,80.8
2022-08-09T08:00:20.865Z,80.8
2022-08-09T08:05:18.487Z,80.8
2022-08-09T08:10:20.793Z,80.8
2022-08-09T08:15:24.112Z,80.8
2022-08-09T08:20:16.286Z,80.8
2022-08-09T08:25:19.347Z,80.8
2022-08-09T08:30:19.339Z,80.9
2022-08-09T08:35:19.305Z,80.8
2022-08-09T08:40:16.240Z,80.8
2022-08-09T08:45:36.767Z,80.8
2022-08-09T08:50:19.313Z,80.9
2022-08-09T08:55:23.361Z,80.9
2022-08-09T09:00:27.305Z,80.9
2022-08-09T09:05:16.259Z,81.0
2022-08-09T09:10:19.241Z,81.0
2022-08-09T09:15:28.425Z,81.0
2022-08-09T09:20:21.574Z,81.0
2022-08-09T09:26:00.840Z,81.1
2022-08-09T09:30:38.241Z,81.1
2022-08-09T09:35:19.306Z,81.1
2022-08-09T09:40:19.393Z,81.1
2022-08-09T09:45:26.155Z,81.2
2022-08-09T09:50:17.581Z,81.2
2022-08-09T09:55:27.965Z,81.2
2022-08-09T10:00:19.310Z,81.2
2022-08-09T10:05:21.723Z,81.2
2022-08-09T10:10:18.597Z,81.2
2022-08-09T10:15:17.662Z,81.2
2022-08-09T10:20:32.542Z,81.2
2022-08-09T10:25:21.079Z,81.2
2022-08-09T10:35:19.325Z,81.2
2022-08-09T10:40:32.446Z,81.2
2022-08-09T10:45:19.348Z,81.2
2022-08-09T10:50:26.927Z,81.3
2022-08-09T10:55:19.237Z,81.3
2022-08-09T11:00:17.785Z,81.4
2022-08-09T11:05:25.174Z,81.5
2022-08-09T11:10:19.309Z,81.7
2022-08-09T11:15:19.366Z,81.8
2022-08-09T11:20:22.044Z,82.0
2022-08-09T11:25:19.251Z,82.2
2022-08-09T11:30:32.130Z,82.4
2022-08-09T11:35:16.282Z,82.5
2022-08-09T11:40:17.746Z,82.7
2022-08-09T11:45:19.344Z,83.0
2022-08-09T11:50:54.186Z,83.2
2022-08-09T11:52:56.354Z,83.2
2022-08-09T11:53:02.117Z,83.2
2022-08-09T11:55:21.742Z,83.4
2022-08-09T12:00:24.600Z,83.5
2022-08-09T12:05:23.081Z,83.7
2022-08-09T12:10:38.571Z,83.8
2022-08-09T12:15:48.462Z,83.8
2022-08-09T12:20:21.939Z,83.8
2022-08-09T12:25:35.708Z,83.9
2022-08-09T12:30:38.780Z,83.9
2022-08-09T12:35:21.932Z,84.0
2022-08-09T12:40:20.986Z,84.1
2022-08-09T12:45:34.106Z,84.1
2022-08-09T12:50:19.567Z,84.2
2022-08-09T12:56:14.816Z,84.3
2022-08-09T12:56:43.493Z,84.3
2022-08-09T13:00:25.156Z,84.4
2022-08-09T13:05:16.385Z,84.5
2022-08-09T13:10:19.397Z,84.6
2022-08-09T13:15:20.957Z,84.7
2022-08-09T13:20:23.319Z,84.8
2022-08-09T13:25:19.376Z,84.9
2022-08-09T13:30:50.787Z,85.0
2022-08-09T13:32:17.771Z,85.0
2022-08-09T13:32:30.258Z,85.0
2022-08-09T13:35:19.355Z,85.1
2022-08-09T13:41:51.430Z,85.3
2022-08-09T13:41:58.728Z,85.3
2022-08-09T13:45:19.295Z,85.4
2022-08-09T13:50:31.268Z,86.2
2022-08-09T13:55:17.504Z,86.4
2022-08-09T14:00:19.357Z,86.7
2022-08-09T14:05:58.911Z,87.1
2022-08-09T14:10:37.622Z,88.5
2022-08-09T14:16:07.254Z,89.2
2022-08-09T14:20:19.332Z,89.1
2022-08-09T14:25:20.989Z,89.2
2022-08-09T14:30:37.206Z,90.0
2022-08-09T14:35:19.421Z,90.2
2022-08-09T14:40:16.506Z,89.9
2022-08-09T14:46:51.190Z,90.8
2022-08-09T14:46:51.265Z,90.8
2022-08-09T14:50:17.463Z,90.8
2022-08-09T14:55:20.325Z,90.8
2022-08-09T15:00:18.001Z,91.3
2022-08-09T15:05:19.405Z,91.0
2022-08-09T15:10:19.397Z,91.7
2022-08-09T15:15:19.434Z,91.4
2022-08-09T15:21:55.043Z,91.5
2022-08-09T15:22:00.717Z,91.5
2022-08-09T15:25:38.990Z,93.2
2022-08-09T15:30:59.057Z,93.3
2022-08-09T15:35:44.322Z,93.4
2022-08-09T15:40:20.033Z,93.3
2022-08-09T15:45:21.416Z,93.7
2022-08-09T15:50:19.451Z,93.5
2022-08-09T15:55:20.020Z,93.7
2022-08-09T16:00:25.678Z,94.1
2022-08-09T16:05:19.353Z,93.9
2022-08-09T16:10:38.544Z,94.1
2022-08-09T16:16:10.834Z,94.2
2022-08-09T16:20:19.450Z,94.0
2022-08-09T16:25:16.453Z,94.0
2022-08-09T16:30:29.417Z,94.1
2022-08-09T16:35:56.121Z,94.7
2022-08-09T16:40:29.980Z,95.7
2022-08-09T16:45:19.388Z,95.3
2022-08-09T16:50:32.430Z,95.4
2022-08-09T16:55:19.429Z,96.8
2022-08-09T17:00:19.471Z,96.5
2022-08-09T17:05:19.676Z,96.6
2022-08-09T17:10:19.440Z,96.4
2022-08-09T17:15:58.480Z,95.4
2022-08-09T17:20:32.573Z,96.2
2022-08-09T17:25:19.484Z,95.9
2022-08-09T17:30:16.463Z,96.1
2022-08-09T17:35:19.529Z,96.9
2022-08-09T17:40:19.543Z,96.5
2022-08-09T17:45:27.084Z,95.6
2022-08-09T17:50:25.081Z,95.4
2022-08-09T17:55:16.517Z,95.8
2022-08-09T18:00:16.520Z,95.9
2022-08-09T18:05:16.489Z,96.2
2022-08-09T18:10:19.512Z,96.4
2022-08-09T18:15:19.467Z,96.4
2022-08-09T18:20:55.955Z,96.1
2022-08-09T18:25:19.608Z,96.3
2022-08-09T18:30:40.108Z,96.1
2022-08-09T18:35:19.463Z,95.1
2022-08-09T18:40:19.450Z,92.0
2022-08-09T18:46:44.896Z,89.1
2022-08-09T18:46:47.640Z,89.1
2022-08-09T18:50:19.486Z,87.2
2022-08-09T18:55:45.794Z,86.0
2022-08-09T19:00:20.200Z,85.1
2022-08-09T19:05:28.972Z,84.4
2022-08-09T19:10:17.665Z,83.9
2022-08-09T19:15:16.500Z,83.0
2022-08-09T19:20:16.511Z,82.4
2022-08-09T19:25:41.776Z,82.0
2022-08-09T19:30:24.561Z,82.1
2022-08-09T19:35:19.558Z,82.5
2022-08-09T19:40:19.801Z,82.4
2022-08-09T19:45:19.492Z,82.5
2022-08-09T19:50:50.946Z,83.0
2022-08-09T19:55:19.715Z,83.4
2022-08-09T20:00:21.101Z,83.7
2022-08-09T20:05:16.923Z,84.2
2022-08-09T20:10:17.923Z,85.1
2022-08-09T20:16:37.441Z,86.0
2022-08-09T20:16:37.519Z,86.0
2022-08-09T20:20:19.556Z,86.3
2022-08-09T20:25:22.429Z,86.7
2022-08-09T20:30:18.113Z,87.0
2022-08-09T20:35:21.267Z,87.5
2022-08-09T20:40:27.409Z,87.7
2022-08-09T20:46:00.610Z,87.8
2022-08-09T20:50:47.083Z,87.7
2022-08-09T20:55:19.499Z,87.7
2022-08-09T21:00:20.701Z,87.9
2022-08-09T21:05:51.133Z,88.0
2022-08-09T21:10:21.143Z,88.4
2022-08-09T21:15:23.728Z,88.6
2022-08-09T21:20:25.926Z,88.7
2022-08-09T21:25:20.670Z,88.9
2022-08-09T21:30:19.572Z,89.3
2022-08-09T21:35:21.485Z,89.3
2022-08-09T21:40:22.000Z,89.6
2022-08-09T21:45:21.097Z,89.7
2022-08-09T21:50:23.003Z,89.8
2022-08-09T21:55:16.646Z,89.7
2022-08-09T22:00:25.492Z,89.7
2022-08-09T22:05:23.353Z,89.5
2022-08-09T22:10:22.199Z,89.3
2022-08-09T22:15:16.959Z,89.2
2022-08-09T22:20:27.197Z,89.2
2022-08-09T22:26:06.970Z,89.1
2022-08-09T22:30:26.092Z,88.9
2022-08-09T22:36:02.323Z,88.6
2022-08-09T22:40:20.317Z,88.3
2022-08-09T22:48:14.261Z,88.0
2022-08-09T22:48:14.809Z,88.0
2022-08-09T22:48:16.722Z,88.0
2022-08-09T22:50:19.573Z,87.5
2022-08-09T22:55:22.567Z,87.2
2022-08-09T23:00:19.553Z,86.7
2022-08-09T23:05:16.594Z,86.4
2022-08-09T23:10:16.601Z,86.0
2022-08-09T23:15:19.595Z,85.8
2022-08-09T23:20:19.592Z,85.7
2022-08-09T23:25:16.636Z,85.6
2022-08-09T23:30:21.178Z,85.5
2022-08-09T23:35:19.598Z,85.4
2022-08-09T23:40:19.586Z,85.4
2022-08-09T23:45:36.404Z,85.3
2022-08-09T23:50:19.603Z,85.3
2022-08-09T23:55:19.575Z,85.2
